TimeCDT,TemperatureF,Dew PointF,Humidity,Sea Level PressureIn,VisibilityMPH,Wind Direction,Wind SpeedMPH,Gust SpeedMPH,PrecipitationIn,Events,Conditions,WindDirDegrees,DateUTC
12:52 AM,80.1,75.0,85,29.94,10.0,SSE,10.4,-,N/A,,Partly Cloudy,150,2013-10-03 05:52:00
1:21 AM,80.6,75.2,84,29.94,10.0,SE,9.2,-,N/A,,Mostly Cloudy,140,2013-10-03 06:21:00
1:38 AM,80.6,75.2,84,29.94,10.0,SE,11.5,-,N/A,,Scattered Clouds,140,2013-10-03 06:38:00
1:52 AM,80.1,75.9,87,29.93,10.0,SSE,10.4,-,N/A,,Partly Cloudy,150,2013-10-03 06:52:00
2:52 AM,80.1,75.9,87,29.92,10.0,SSE,9.2,-,N/A,,Scattered Clouds,150,2013-10-03 07:52:00
2:59 AM,80.6,75.2,84,29.92,10.0,SSE,10.4,-,N/A,,Mostly Cloudy,160,2013-10-03 07:59:00
3:07 AM,80.6,75.2,84,29.91,10.0,SSE,9.2,-,N/A,,Scattered Clouds,160,2013-10-03 08:07:00
3:52 AM,80.1,75.0,85,29.91,10.0,SSE,9.2,-,N/A,,Partly Cloudy,150,2013-10-03 08:52:00
4:52 AM,80.1,75.9,87,29.91,10.0,SSE,11.5,21.9,N/A,,Partly Cloudy,160,2013-10-03 09:52:00
5:52 AM,79.0,75.9,90,29.91,10.0,SSE,8.1,-,0.00,,Clear,160,2013-10-03 10:52:00
6:52 AM,79.0,75.9,90,29.91,10.0,SSE,6.9,-,N/A,,Partly Cloudy,150,2013-10-03 11:52:00
7:52 AM,80.1,75.9,87,29.92,10.0,SSE,6.9,-,N/A,,Clear,160,2013-10-03 12:52:00
8:52 AM,82.9,75.9,79,29.94,10.0,SSE,8.1,-,N/A,,Clear,160,2013-10-03 13:52:00
9:52 AM,84.0,75.9,76,29.96,10.0,SSE,9.2,-,N/A,,Scattered Clouds,160,2013-10-03 14:52:00
10:52 AM,84.0,75.9,76,29.96,10.0,SSE,11.5,-,N/A,,Scattered Clouds,150,2013-10-03 15:52:00
11:52 AM,84.9,75.9,74,29.96,10.0,SSE,10.4,-,N/A,,Scattered Clouds,160,2013-10-03 16:52:00
12:52 PM,86.0,77.0,74,29.95,10.0,SE,10.4,-,N/A,,Scattered Clouds,140,2013-10-03 17:52:00
1:52 PM,86.0,75.9,72,29.94,10.0,SSE,8.1,-,N/A,,Mostly Cloudy,160,2013-10-03 18:52:00
2:52 PM,86.0,77.0,74,29.92,10.0,SE,10.4,-,N/A,,Clear,140,2013-10-03 19:52:00
3:52 PM,84.9,73.9,69,29.91,10.0,SSE,11.5,-,N/A,,Scattered Clouds,150,2013-10-03 20:52:00
4:52 PM,84.9,75.9,74,29.90,10.0,SE,10.4,-,N/A,,Scattered Clouds,130,2013-10-03 21:52:00
5:52 PM,84.0,75.0,74,29.89,10.0,SE,12.7,-,N/A,,Partly Cloudy,140,2013-10-03 22:52:00
6:52 PM,81.0,73.9,79,29.89,10.0,SSE,11.5,-,N/A,,Partly Cloudy,150,2013-10-03 23:52:00
7:52 PM,81.0,73.9,79,29.90,10.0,SE,9.2,-,N/A,,Clear,140,2013-10-04 00:52:00
8:52 PM,81.0,73.9,79,29.92,10.0,SE,10.4,-,N/A,,Clear,140,2013-10-04 01:52:00
9:52 PM,80.1,73.0,79,29.93,10.0,SE,11.5,-,N/A,,Clear,140,2013-10-04 02:52:00
11:52 PM,80.1,73.9,81,29.93,10.0,SSE,10.4,-,N/A,,Partly Cloudy,150,2013-10-04 04:52:00